Earl Gonsoulin — WDC3306 — position and weather

sailwx.info

Track history (hours):
 
Tides and Currents Weather Stations Pressure Air Temp Water Temp Dewpoint Dewpoint Depression Visibility Wind Speed Wind Dir Waves Ship Positions

Earl Gonsoulin

Owner: LeBeouf Bros. Towing, L.L.C., Houma, LA. More information available from US FCC via Universal Licensing System and Coast Guard Vessel Documentation Center.

Last reported at 2015-Jan-28 15:28 UTC. Time now 2015-Jan-30 09:26 UTC.
Position N 29°25' W 094°44'.

Length 9 m.

Type: Towing. MMSI: 367005550.

Date/timePositionNaut miles runAvg speedWind from/ knotsBaromVisibWave heightAir tempDewpointWater temp
2015-Jan-28 15:28N 29°25' W 094°44'5 3.8
2015-Jan-28 14:09N 29°22' W 094°48'4 6.9
2015-Jan-28 13:34N 29°26' W 094°50'7 7.3
2015-Jan-28 12:33N 29°32' W 094°54'7 6.7
2015-Jan-28 11:34N 29°38' W 094°58'7 6.6
2015-Jan-28 10:33N 29°44' W 095°02'4 4.3
2015-Jan-28 09:34N 29°44' W 095°07'4 4.4
2015-Jan-28 08:34N 29°45' W 095°12'0 0.1
2015-Jan-28 07:34N 29°45' W 095°12'0 0.1
2015-Jan-28 06:34N 29°45' W 095°12'0 0.0
2015-Jan-28 05:34N 29°45' W 095°12'0 0.0
2015-Jan-28 04:34N 29°45' W 095°12'0 0.0
2015-Jan-28 03:34N 29°45' W 095°12'0 0.0
2015-Jan-28 02:34N 29°45' W 095°12'0 0.0
2015-Jan-28 01:33N 29°45' W 095°12'0 0.0
2015-Jan-28 00:34N 29°45' W 095°12'0 0.0
2015-Jan-27 23:34N 29°45' W 095°12'0 0.0
2015-Jan-27 22:34N 29°45' W 095°12'0 0.0
2015-Jan-27 21:33N 29°45' W 095°12'0 0.0
2015-Jan-27 20:33N 29°45' W 095°12'0 0.0
2015-Jan-27 19:34N 29°45' W 095°12'0 0.0
2015-Jan-27 18:34N 29°45' W 095°12'0 0.0
2015-Jan-27 17:34N 29°45' W 095°12'0 0.0
2015-Jan-27 16:34N 29°45' W 095°12'0 0.0
2015-Jan-27 15:33N 29°45' W 095°12'0 0.0
2015-Jan-27 14:34N 29°45' W 095°12'0 0.0
2015-Jan-27 06:25N 29°45' W 095°12'0 0.0
2015-Jan-27 05:33N 29°45' W 095°12'0 0.0
2015-Jan-27 04:33N 29°45' W 095°12'0 0.0
2015-Jan-27 03:33N 29°45' W 095°12'0 0.0
2015-Jan-27 02:33N 29°45' W 095°12'0 0.1
2015-Jan-27 01:33N 29°45' W 095°12'2 1.6
2015-Jan-27 00:33N 29°45' W 095°10'5 5.4
2015-Jan-26 23:33N 29°44' W 095°04'5 5.2
2015-Jan-26 22:33N 29°41' W 094°59'7 6.8
2015-Jan-26 21:34N 29°35' W 094°56'8 7.7
2015-Jan-26 20:31N 29°28' W 094°51'13 2.2
2015-Jan-26 14:31N 29°16' W 094°59'  
Track history (hours):
 
Tides and Currents Weather Stations Pressure Air Temp Water Temp Dewpoint Dewpoint Depression Visibility Wind Speed Wind Dir Waves Ship Positions

Earl Gonsoulin

Owner: LeBeouf Bros. Towing, L.L.C., Houma, LA. More information available from US FCC via Universal Licensing System and Coast Guard Vessel Documentation Center.

Last reported at 2015-Jan-28 15:28 UTC. Time now 2015-Jan-30 09:26 UTC.
Position N 29°25' W 094°44'.

Length 9 m.

Type: Towing. MMSI: 367005550.

Date/timePositionNaut miles runAvg speedWind from/ knotsBaromVisibWave heightAir tempDewpointWater temp
2015-Jan-28 15:28N 29°25' W 094°44'5 3.8
2015-Jan-28 14:09N 29°22' W 094°48'4 6.9
2015-Jan-28 13:34N 29°26' W 094°50'7 7.3
2015-Jan-28 12:33N 29°32' W 094°54'7 6.7
2015-Jan-28 11:34N 29°38' W 094°58'7 6.6
2015-Jan-28 10:33N 29°44' W 095°02'4 4.3
2015-Jan-28 09:34N 29°44' W 095°07'4 4.4
2015-Jan-28 08:34N 29°45' W 095°12'0 0.1
2015-Jan-28 07:34N 29°45' W 095°12'0 0.1
2015-Jan-28 06:34N 29°45' W 095°12'0 0.0
2015-Jan-28 05:34N 29°45' W 095°12'0 0.0
2015-Jan-28 04:34N 29°45' W 095°12'0 0.0
2015-Jan-28 03:34N 29°45' W 095°12'0 0.0
2015-Jan-28 02:34N 29°45' W 095°12'0 0.0
2015-Jan-28 01:33N 29°45' W 095°12'0 0.0
2015-Jan-28 00:34N 29°45' W 095°12'0 0.0
2015-Jan-27 23:34N 29°45' W 095°12'0 0.0
2015-Jan-27 22:34N 29°45' W 095°12'0 0.0
2015-Jan-27 21:33N 29°45' W 095°12'0 0.0
2015-Jan-27 20:33N 29°45' W 095°12'0 0.0
2015-Jan-27 19:34N 29°45' W 095°12'0 0.0
2015-Jan-27 18:34N 29°45' W 095°12'0 0.0
2015-Jan-27 17:34N 29°45' W 095°12'0 0.0
2015-Jan-27 16:34N 29°45' W 095°12'0 0.0
2015-Jan-27 15:33N 29°45' W 095°12'0 0.0
2015-Jan-27 14:34N 29°45' W 095°12'0 0.0
2015-Jan-27 06:25N 29°45' W 095°12'0 0.0
2015-Jan-27 05:33N 29°45' W 095°12'0 0.0
2015-Jan-27 04:33N 29°45' W 095°12'0 0.0
2015-Jan-27 03:33N 29°45' W 095°12'0 0.0
2015-Jan-27 02:33N 29°45' W 095°12'0 0.1
2015-Jan-27 01:33N 29°45' W 095°12'2 1.6
2015-Jan-27 00:33N 29°45' W 095°10'5 5.4
2015-Jan-26 23:33N 29°44' W 095°04'5 5.2
2015-Jan-26 22:33N 29°41' W 094°59'7 6.8
2015-Jan-26 21:34N 29°35' W 094°56'8 7.7
2015-Jan-26 20:31N 29°28' W 094°51'13 2.2
2015-Jan-26 14:31N 29°16' W 094°59'  

Dump ship's entire track history